Time;durP1;ratioP1;P1;durP2;ratioP2;P2;SDS_P1;SDS_P2;PMS_P1;PMS_P2;Temp;Humidity;BMP_temperature;BMP_pressure;BME280_temperature;BME280_humidity;BME280_pressure;Samples;Min_cycle;Max_cycle;Signal;HPM_P1;HPM_P2
2023/11/19 00:00:11;;;;;;;3.07;2.70;;;4.80;99.90;;;;;;5023656;28;20188;-82
2023/11/19 00:02:40;;;;;;;4.03;2.63;;;4.80;99.90;;;;;;5020788;28;20500;-82
2023/11/19 00:05:08;;;;;;;3.50;3.10;;;4.80;99.90;;;;;;5018852;28;20037;-82
2023/11/19 00:07:36;;;;;;;4.00;2.93;;;4.80;99.90;;;;;;5021142;28;20041;-82
2023/11/19 00:10:06;;;;;;;4.00;2.70;;;4.90;99.90;;;;;;5020947;28;20125;-83
2023/11/19 00:12:32;;;;;;;4.00;3.00;;;4.90;99.90;;;;;;5021507;28;20740;-82
2023/11/19 00:14:58;;;;;;;3.40;2.90;;;4.90;99.90;;;;;;5020585;28;20032;-82
2023/11/19 00:17:23;;;;;;;4.40;2.87;;;4.90;99.90;;;;;;5020369;28;20037;-82
2023/11/19 00:19:51;;;;;;;5.00;3.40;;;4.90;99.90;;;;;;5018443;28;20049;-82
2023/11/19 00:22:17;;;;;;;3.90;3.00;;;5.00;99.90;;;;;;5022322;28;20093;-81
2023/11/19 00:24:42;;;;;;;5.30;3.27;;;5.10;99.90;;;;;;5019798;28;20022;-82
2023/11/19 00:27:08;;;;;;;6.03;3.80;;;5.10;99.90;;;;;;5019217;28;20412;-82
2023/11/19 00:29:33;;;;;;;6.57;4.33;;;5.10;99.90;;;;;;5020631;28;20050;-81
2023/11/19 00:31:59;;;;;;;7.20;4.07;;;5.10;99.90;;;;;;5035104;28;20120;-81
2023/11/19 00:34:24;;;;;;;11.10;5.10;;;5.20;99.90;;;;;;5038637;28;20870;-82
2023/11/19 00:36:50;;;;;;;6.17;4.50;;;5.20;99.90;;;;;;5037936;28;20053;-81
2023/11/19 00:39:15;;;;;;;7.00;4.77;;;5.20;99.90;;;;;;5014612;28;20045;-81
2023/11/19 00:41:41;;;;;;;7.30;4.70;;;5.20;99.90;;;;;;5017383;28;20037;-82
2023/11/19 00:44:07;;;;;;;6.33;4.17;;;5.30;99.90;;;;;;5023710;28;20037;-82
2023/11/19 00:46:32;;;;;;;8.23;4.73;;;5.30;99.90;;;;;;5024487;28;20606;-82
2023/11/19 00:48:59;;;;;;;7.13;4.47;;;5.30;99.90;;;;;;5021455;28;20037;-82
2023/11/19 00:51:26;;;;;;;7.10;4.30;;;5.30;99.90;;;;;;5022555;28;20601;-82
2023/11/19 00:53:53;;;;;;;6.83;4.70;;;5.40;99.90;;;;;;5023509;28;20059;-82
2023/11/19 00:56:19;;;;;;;7.13;4.53;;;5.40;99.90;;;;;;5026006;28;21562;-82
2023/11/19 00:58:45;;;;;;;8.53;4.60;;;5.40;99.90;;;;;;5024645;28;20595;-82
2023/11/19 01:01:11;;;;;;;7.33;4.23;;;5.40;99.90;;;;;;5024319;28;20037;-82
2023/11/19 01:03:37;;;;;;;5.83;3.73;;;5.50;99.90;;;;;;5025477;28;20034;-82
2023/11/19 01:06:03;;;;;;;6.83;3.60;;;5.50;99.90;;;;;;5026056;28;20105;-82
2023/11/19 01:08:29;;;;;;;5.03;3.30;;;5.50;99.90;;;;;;5025470;28;20030;-82
2023/11/19 01:10:55;;;;;;;3.80;2.90;;;5.50;99.90;;;;;;5025417;28;20078;-82
2023/11/19 01:13:20;;;;;;;4.03;3.00;;;5.50;99.90;;;;;;5025483;28;20040;-81
2023/11/19 01:15:47;;;;;;;4.10;2.83;;;5.60;99.90;;;;;;5022354;28;20028;-81
2023/11/19 01:18:12;;;;;;;5.93;3.27;;;5.60;99.90;;;;;;5024079;28;20041;-81
2023/11/19 01:20:38;;;;;;;4.07;2.97;;;5.60;99.90;;;;;;5023953;28;21006;-82
2023/11/19 01:23:04;;;;;;;6.60;2.97;;;5.60;99.90;;;;;;5025817;28;20056;-81
2023/11/19 01:25:29;;;;;;;4.70;2.93;;;5.70;99.90;;;;;;5023775;28;20064;-82
2023/11/19 01:27:58;;;;;;;5.40;3.10;;;5.70;99.90;;;;;;5023661;28;20053;-82
2023/11/19 01:30:24;;;;;;;5.70;2.97;;;5.70;99.90;;;;;;5023696;28;20021;-82
2023/11/19 01:32:49;;;;;;;3.80;2.60;;;5.70;99.90;;;;;;5024776;28;20037;-82
2023/11/19 01:35:15;;;;;;;3.90;3.10;;;5.70;99.90;;;;;;5023338;28;20085;-82
2023/11/19 01:37:40;;;;;;;4.00;2.90;;;5.80;99.90;;;;;;5027399;28;20041;-82
2023/11/19 01:40:08;;;;;;;6.13;3.10;;;5.80;99.90;;;;;;5030731;28;20033;-81
2023/11/19 01:42:41;;;;;;;4.13;3.33;;;5.80;99.90;;;;;;5029567;28;20120;-82
2023/11/19 01:45:09;;;;;;;4.97;3.50;;;5.90;99.90;;;;;;5024322;28;20105;-81
2023/11/19 01:47:35;;;;;;;4.93;3.53;;;5.90;99.90;;;;;;5021734;28;20357;-82
2023/11/19 01:50:05;;;;;;;3.97;2.87;;;6.00;99.90;;;;;;5023658;28;20037;-82
2023/11/19 01:52:34;;;;;;;3.87;2.83;;;6.00;99.90;;;;;;5021615;28;20034;-81
2023/11/19 01:55:02;;;;;;;5.23;2.77;;;6.10;99.90;;;;;;5021696;28;20143;-82
2023/11/19 01:57:27;;;;;;;4.13;3.10;;;6.20;99.90;;;;;;5022592;28;20052;-81
2023/11/19 01:59:53;;;;;;;4.90;2.73;;;6.30;99.90;;;;;;5021745;28;20029;-81
2023/11/19 02:02:22;;;;;;;3.63;2.67;;;6.30;99.90;;;;;;5022170;28;20029;-82
2023/11/19 02:04:50;;;;;;;3.50;2.67;;;6.40;99.90;;;;;;5021818;28;20694;-82
2023/11/19 02:07:17;;;;;;;3.40;2.30;;;6.50;99.90;;;;;;5021822;28;20140;-81
2023/11/19 02:09:43;;;;;;;3.63;2.40;;;6.50;99.90;;;;;;5020842;28;21448;-81
2023/11/19 02:12:11;;;;;;;4.93;2.40;;;6.60;99.90;;;;;;5020985;28;20044;-81
2023/11/19 02:14:37;;;;;;;2.97;2.00;;;6.70;99.90;;;;;;5023310;28;20171;-81
2023/11/19 02:17:03;;;;;;;2.93;2.00;;;6.80;99.90;;;;;;5018729;28;20550;-81
2023/11/19 02:19:29;;;;;;;2.60;2.00;;;6.90;99.90;;;;;;5018766;28;20025;-81
2023/11/19 02:21:55;;;;;;;3.63;1.93;;;7.00;99.90;;;;;;5024302;28;20098;-82
2023/11/19 02:24:24;;;;;;;3.43;2.10;;;7.10;99.90;;;;;;5020775;28;20108;-81
2023/11/19 02:27:15;;;;;;;2.87;2.00;;;7.20;99.90;;;;;;5020267;28;20033;-81
2023/11/19 02:29:42;;;;;;;2.63;1.80;;;7.30;99.90;;;;;;5004552;28;20025;-82
2023/11/19 02:32:09;;;;;;;2.27;1.67;;;7.30;99.90;;;;;;5023266;28;20033;-82
2023/11/19 02:34:34;;;;;;;3.27;1.77;;;7.40;99.90;;;;;;5022352;28;20648;-82
2023/11/19 02:37:01;;;;;;;1.93;1.63;;;7.40;99.90;;;;;;5021933;28;20519;-81
2023/11/19 02:39:26;;;;;;;3.40;2.03;;;7.50;99.90;;;;;;5023686;28;20116;-82
2023/11/19 02:41:53;;;;;;;3.13;1.67;;;7.50;99.90;;;;;;5022405;28;20126;-82
2023/11/19 02:44:18;;;;;;;3.80;2.00;;;7.60;99.90;;;;;;5021581;28;20087;-83
2023/11/19 02:46:44;;;;;;;2.03;1.27;;;7.60;99.90;;;;;;5021630;28;20034;-81
2023/11/19 02:49:09;;;;;;;1.73;1.40;;;7.70;99.90;;;;;;5022453;28;20033;-81
2023/11/19 02:51:35;;;;;;;2.00;1.43;;;7.70;99.90;;;;;;5021182;28;20053;-81
2023/11/19 02:54:03;;;;;;;3.80;1.60;;;7.70;99.90;;;;;;5021518;28;20029;-81
2023/11/19 02:56:34;;;;;;;2.00;1.40;;;7.80;99.90;;;;;;5021056;28;20046;-82
2023/11/19 02:59:03;;;;;;;2.27;1.53;;;7.90;99.90;;;;;;5021351;28;20029;-82
2023/11/19 03:01:33;;;;;;;1.70;1.10;;;7.90;99.90;;;;;;5022062;28;20064;-82
2023/11/19 03:04:00;;;;;;;2.43;1.53;;;8.10;99.90;;;;;;5023358;28;20041;-81
2023/11/19 03:06:27;;;;;;;1.30;1.10;;;8.10;99.90;;;;;;5021484;28;20208;-82
2023/11/19 03:08:54;;;;;;;1.87;0.97;;;8.20;99.90;;;;;;5021023;28;20057;-82
2023/11/19 03:11:20;;;;;;;1.70;1.20;;;8.20;99.90;;;;;;5019445;28;20021;-83
2023/11/19 03:13:46;;;;;;;1.30;1.03;;;8.30;99.90;;;;;;5022082;28;20026;-82
2023/11/19 03:16:12;;;;;;;1.73;1.00;;;8.30;99.90;;;;;;5020713;28;20034;-82
2023/11/19 03:18:38;;;;;;;1.33;0.90;;;8.30;99.90;;;;;;5028371;28;21355;-83
2023/11/19 03:21:06;;;;;;;2.30;1.00;;;8.40;99.90;;;;;;5024922;28;20037;-83
2023/11/19 03:23:31;;;;;;;1.43;0.90;;;8.40;99.90;;;;;;5024703;28;20034;-82
2023/11/19 03:25:57;;;;;;;2.33;1.20;;;8.40;99.90;;;;;;5026991;28;20080;-82
2023/11/19 03:28:22;;;;;;;1.23;0.90;;;8.50;99.90;;;;;;5032525;28;20041;-81
2023/11/19 03:30:48;;;;;;;1.10;0.90;;;8.50;99.90;;;;;;5042150;28;20036;-81
2023/11/19 03:33:14;;;;;;;1.77;0.93;;;8.60;99.90;;;;;;5039493;28;20040;-82
2023/11/19 03:35:41;;;;;;;1.63;0.90;;;8.60;99.90;;;;;;5022741;28;20044;-82
2023/11/19 03:38:06;;;;;;;0.63;0.60;;;8.60;99.90;;;;;;5025704;28;20031;-82
2023/11/19 03:40:32;;;;;;;1.10;0.70;;;8.70;99.90;;;;;;5005599;28;20042;-82
2023/11/19 03:42:58;;;;;;;1.13;0.70;;;8.70;99.90;;;;;;5023393;28;20374;-82
2023/11/19 03:45:24;;;;;;;1.00;0.80;;;8.70;99.90;;;;;;5024403;28;20029;-82
2023/11/19 03:47:50;;;;;;;1.07;0.80;;;8.80;99.90;;;;;;5020906;28;20456;-82
2023/11/19 03:50:16;;;;;;;1.90;0.90;;;8.80;99.90;;;;;;5022717;28;20164;-81
2023/11/19 03:52:42;;;;;;;1.10;0.80;;;8.80;99.90;;;;;;5023788;28;20033;-82
2023/11/19 03:55:08;;;;;;;1.83;0.80;;;8.90;99.90;;;;;;5022098;28;20492;-82
2023/11/19 03:57:34;;;;;;;1.47;0.80;;;8.90;99.90;;;;;;5026005;28;20116;-81
2023/11/19 04:00:02;;;;;;;1.00;0.80;;;8.90;99.90;;;;;;5024704;28;20104;-82
2023/11/19 04:02:28;;;;;;;2.40;0.80;;;9.00;99.90;;;;;;5025690;28;20076;-82
2023/11/19 04:04:55;;;;;;;2.40;0.97;;;9.00;99.90;;;;;;5023858;28;20030;-83
2023/11/19 04:07:21;;;;;;;1.20;0.70;;;9.00;99.90;;;;;;5022216;28;20040;-83
2023/11/19 04:09:46;;;;;;;1.10;0.80;;;9.10;99.90;;;;;;5020474;28;20025;-83
2023/11/19 04:12:12;;;;;;;0.93;0.70;;;9.10;99.90;;;;;;5021273;28;20022;-82
2023/11/19 04:14:40;;;;;;;1.27;0.90;;;9.10;99.90;;;;;;5019766;28;20029;-82
2023/11/19 04:17:05;;;;;;;0.80;0.80;;;9.10;99.90;;;;;;5018958;28;20034;-83
2023/11/19 04:19:32;;;;;;;1.77;0.90;;;9.10;99.90;;;;;;5023499;28;20039;-83
2023/11/19 04:21:58;;;;;;;1.10;0.90;;;9.10;99.90;;;;;;5021221;28;20104;-82
2023/11/19 04:24:24;;;;;;;1.50;0.90;;;9.10;99.90;;;;;;5020281;28;20568;-82
2023/11/19 04:26:50;;;;;;;1.03;0.70;;;9.10;99.90;;;;;;5020189;28;20531;-83
2023/11/19 04:29:17;;;;;;;1.50;0.83;;;9.10;99.90;;;;;;5021179;28;20036;-82
2023/11/19 04:31:43;;;;;;;2.33;1.10;;;9.10;99.90;;;;;;5020965;28;20112;-82
2023/11/19 04:34:08;;;;;;;1.33;1.07;;;9.20;99.90;;;;;;5017325;28;20033;-82
2023/11/19 04:36:34;;;;;;;1.17;0.97;;;9.20;99.90;;;;;;5017486;28;20053;-82
2023/11/19 04:39:00;;;;;;;2.77;0.90;;;9.20;99.90;;;;;;5020001;28;20026;-83
2023/11/19 04:41:29;;;;;;;1.50;1.00;;;9.20;99.90;;;;;;5018983;28;20052;-82
2023/11/19 04:43:55;;;;;;;1.60;1.00;;;9.20;99.90;;;;;;5019956;28;20064;-82
2023/11/19 04:46:20;;;;;;;1.23;0.73;;;9.20;99.90;;;;;;5021189;28;20100;-82
2023/11/19 04:48:46;;;;;;;1.30;1.00;;;9.20;99.90;;;;;;5024079;28;20025;-83
2023/11/19 04:51:12;;;;;;;1.33;0.80;;;9.30;99.90;;;;;;5023637;28;20040;-81
2023/11/19 04:53:37;;;;;;;1.10;1.00;;;9.30;99.90;;;;;;5023164;28;20041;-82
2023/11/19 04:56:10;;;;;;;1.03;0.90;;;9.40;99.90;;;;;;5024629;28;20457;-82
2023/11/19 04:58:36;;;;;;;0.80;0.70;;;9.40;99.90;;;;;;5025313;28;20034;-83
2023/11/19 05:01:03;;;;;;;0.80;0.80;;;9.50;99.90;;;;;;5027927;28;20030;-82
2023/11/19 05:03:29;;;;;;;2.30;0.80;;;9.40;99.90;;;;;;5027376;28;20061;-82
2023/11/19 05:05:54;;;;;;;1.60;0.90;;;9.40;99.90;;;;;;5027618;28;20496;-82
2023/11/19 05:08:20;;;;;;;1.07;0.87;;;9.40;99.90;;;;;;5022569;28;20026;-82
2023/11/19 05:10:45;;;;;;;2.37;0.90;;;9.40;99.90;;;;;;5026636;28;20912;-83
2023/11/19 05:13:12;;;;;;;1.37;1.00;;;9.50;99.90;;;;;;5023297;28;20025;-81
2023/11/19 05:15:38;;;;;;;3.47;1.60;;;9.50;99.90;;;;;;5022996;28;20316;-81
2023/11/19 05:18:04;;;;;;;2.27;1.17;;;9.50;99.90;;;;;;5023809;28;20037;-82
2023/11/19 05:20:30;;;;;;;1.70;0.93;;;9.50;99.90;;;;;;5025921;28;20028;-82
2023/11/19 05:22:56;;;;;;;0.87;0.80;;;9.50;99.90;;;;;;5023567;28;20112;-82
2023/11/19 05:25:21;;;;;;;1.63;1.00;;;9.50;99.90;;;;;;5024107;28;20049;-82
2023/11/19 05:27:47;;;;;;;2.33;1.00;;;9.50;99.90;;;;;;5022021;28;20626;-81
2023/11/19 05:30:12;;;;;;;1.87;1.20;;;9.50;99.90;;;;;;5023684;28;20033;-82
2023/11/19 05:32:39;;;;;;;2.10;0.90;;;9.50;99.90;;;;;;5022072;28;20080;-82
2023/11/19 05:35:05;;;;;;;1.10;1.00;;;9.50;99.90;;;;;;5021776;28;20018;-82
2023/11/19 05:37:31;;;;;;;1.40;0.90;;;9.50;99.90;;;;;;5021594;28;20065;-82
2023/11/19 05:39:56;;;;;;;0.90;0.90;;;9.40;99.90;;;;;;5023722;28;20049;-81
2023/11/19 05:42:23;;;;;;;1.17;0.93;;;9.40;99.90;;;;;;5021334;28;20071;-82
2023/11/19 05:44:49;;;;;;;1.50;1.00;;;9.40;99.90;;;;;;5021156;28;20449;-82
2023/11/19 05:47:14;;;;;;;1.53;0.77;;;9.40;99.90;;;;;;5019729;28;20026;-82
2023/11/19 05:49:40;;;;;;;1.83;0.90;;;9.50;99.90;;;;;;5017375;28;20052;-83
2023/11/19 05:52:07;;;;;;;1.33;0.90;;;9.50;99.90;;;;;;5020109;28;20038;-82
2023/11/19 05:54:37;;;;;;;0.93;0.80;;;9.50;99.90;;;;;;5020640;28;20032;-81
2023/11/19 05:57:04;;;;;;;1.80;0.70;;;9.50;99.90;;;;;;5016892;28;20029;-83
2023/11/19 05:59:29;;;;;;;1.83;0.90;;;9.50;99.90;;;;;;5019725;28;20030;-82
2023/11/19 06:01:57;;;;;;;1.47;0.93;;;9.50;99.90;;;;;;5020458;28;20030;-83
2023/11/19 06:04:22;;;;;;;0.60;0.60;;;9.50;99.90;;;;;;5020946;28;20497;-83
2023/11/19 06:06:48;;;;;;;1.00;0.80;;;9.60;99.90;;;;;;5018673;28;20040;-83
2023/11/19 06:09:14;;;;;;;1.40;0.87;;;9.60;99.90;;;;;;5021110;28;20527;-82
2023/11/19 06:11:39;;;;;;;2.03;0.87;;;9.60;99.90;;;;;;5017734;28;20083;-82
2023/11/19 06:14:07;;;;;;;1.63;0.90;;;9.60;99.90;;;;;;5020992;28;20036;-83
2023/11/19 06:16:32;;;;;;;2.60;1.03;;;9.60;99.90;;;;;;5015431;28;20038;-83
2023/11/19 06:18:58;;;;;;;2.07;0.80;;;9.50;99.90;;;;;;5017930;28;20038;-83
2023/11/19 06:21:24;;;;;;;1.00;0.90;;;9.60;99.90;;;;;;5020862;28;20029;-83
2023/11/19 06:23:52;;;;;;;0.83;0.70;;;9.60;99.90;;;;;;5025308;28;20128;-82
2023/11/19 06:26:18;;;;;;;0.87;0.70;;;9.60;99.90;;;;;;5036554;28;20163;-83
2023/11/19 06:28:44;;;;;;;0.93;0.70;;;9.70;99.90;;;;;;5036721;28;20047;-81
2023/11/19 06:31:09;;;;;;;2.13;0.87;;;9.60;99.90;;;;;;5022907;28;20089;-82
2023/11/19 06:33:35;;;;;;;1.03;0.90;;;9.60;99.90;;;;;;5020508;28;20034;-82
2023/11/19 06:36:00;;;;;;;1.20;0.80;;;9.60;99.90;;;;;;5017917;28;20060;-83
2023/11/19 06:38:26;;;;;;;0.93;0.70;;;9.70;99.90;;;;;;5020427;28;20040;-82
2023/11/19 06:40:52;;;;;;;0.77;0.70;;;9.70;99.90;;;;;;5020258;28;20045;-82
2023/11/19 06:43:17;;;;;;;0.80;0.70;;;9.80;99.90;;;;;;5018883;28;20477;-84
2023/11/19 06:45:43;;;;;;;0.60;0.60;;;9.80;99.90;;;;;;5016182;28;20030;-85
2023/11/19 06:48:09;;;;;;;1.00;0.80;;;9.80;99.90;;;;;;5012539;28;20032;-85
2023/11/19 06:50:34;;;;;;;0.60;0.60;;;9.80;99.90;;;;;;5014678;28;20029;-84
2023/11/19 06:53:00;;;;;;;0.60;0.60;;;9.90;99.90;;;;;;5013976;28;20977;-84
2023/11/19 06:55:26;;;;;;;0.80;0.60;;;9.90;99.90;;;;;;5012677;28;20045;-85
2023/11/19 06:57:52;;;;;;;1.13;0.80;;;9.90;99.90;;;;;;5014128;28;20033;-85
2023/11/19 07:00:18;;;;;;;1.90;0.73;;;9.90;99.90;;;;;;5014012;28;20033;-85
2023/11/19 07:02:44;;;;;;;0.63;0.57;;;9.90;99.90;;;;;;5014848;28;20502;-84
2023/11/19 07:05:12;;;;;;;0.73;0.60;;;9.90;99.90;;;;;;5012421;28;20116;-84
2023/11/19 07:07:37;;;;;;;0.60;0.60;;;9.90;99.90;;;;;;5013948;28;21451;-84
2023/11/19 07:10:04;;;;;;;0.67;0.60;;;9.90;99.90;;;;;;5012670;28;20099;-85
2023/11/19 07:12:30;;;;;;;1.77;0.57;;;9.80;99.90;;;;;;5014172;28;20099;-85
2023/11/19 07:14:55;;;;;;;0.70;0.70;;;9.90;99.90;;;;;;5014059;28;20025;-85
2023/11/19 07:17:21;;;;;;;1.50;0.57;;;10.00;99.90;;;;;;5012173;28;20045;-85
2023/11/19 07:19:49;;;;;;;0.93;0.70;;;10.00;99.90;;;;;;5015572;28;20041;-82
2023/11/19 07:22:15;;;;;;;0.60;0.60;;;10.00;99.90;;;;;;5014626;28;20500;-82
2023/11/19 07:24:41;;;;;;;0.70;0.70;;;10.00;99.90;;;;;;5016563;28;20129;-82
2023/11/19 07:27:08;;;;;;;1.20;0.67;;;10.00;99.90;;;;;;5016735;28;20386;-82
2023/11/19 07:29:34;;;;;;;0.67;0.60;;;10.10;99.90;;;;;;5016299;28;20116;-80
2023/11/19 07:32:01;;;;;;;1.93;0.67;;;10.10;99.90;;;;;;5017586;28;20033;-80
2023/11/19 07:34:27;;;;;;;0.93;0.67;;;10.00;99.90;;;;;;5017359;28;20033;-81
2023/11/19 07:36:53;;;;;;;1.00;0.70;;;10.10;99.90;;;;;;5016740;28;20038;-81
2023/11/19 07:39:20;;;;;;;2.60;0.90;;;10.10;99.90;;;;;;5016584;28;20073;-82
2023/11/19 07:41:46;;;;;;;1.57;0.90;;;10.10;99.90;;;;;;5017738;28;20040;-83
2023/11/19 07:44:11;;;;;;;1.43;1.00;;;10.10;99.90;;;;;;5015433;28;20034;-82
2023/11/19 07:46:37;;;;;;;2.07;1.00;;;10.10;99.90;;;;;;5017180;28;20038;-82
2023/11/19 07:49:03;;;;;;;1.07;0.80;;;10.20;99.90;;;;;;5016551;28;20068;-82
2023/11/19 07:51:28;;;;;;;0.83;0.73;;;10.20;99.90;;;;;;5013034;28;20097;-82
2023/11/19 07:53:54;;;;;;;0.60;0.60;;;10.20;99.90;;;;;;5015234;28;20042;-84
2023/11/19 07:56:19;;;;;;;1.03;0.70;;;10.20;99.90;;;;;;5013563;28;20056;-81
2023/11/19 07:58:45;;;;;;;0.60;0.60;;;10.20;99.90;;;;;;5014777;28;20025;-81
2023/11/19 08:01:10;;;;;;;0.50;0.50;;;10.20;99.90;;;;;;5016165;28;20041;-81
2023/11/19 08:03:36;;;;;;;0.80;0.50;;;10.30;99.90;;;;;;5018170;28;20046;-82
2023/11/19 08:06:03;;;;;;;1.40;0.70;;;10.30;99.90;;;;;;5021553;28;20160;-82
2023/11/19 08:08:29;;;;;;;2.37;0.77;;;10.40;99.90;;;;;;5020127;28;20117;-82
2023/11/19 08:10:56;;;;;;;0.50;0.50;;;10.40;99.90;;;;;;5021081;28;20037;-82
2023/11/19 08:13:23;;;;;;;1.03;0.77;;;10.50;99.90;;;;;;5021900;28;20034;-81
2023/11/19 08:15:48;;;;;;;0.50;0.50;;;10.50;99.90;;;;;;5022090;28;20097;-82
2023/11/19 08:18:14;;;;;;;0.77;0.70;;;10.60;99.90;;;;;;5022851;28;20564;-82
2023/11/19 08:20:41;;;;;;;1.00;0.60;;;10.60;99.90;;;;;;5020765;28;20066;-82
2023/11/19 08:23:07;;;;;;;0.70;0.60;;;10.60;99.90;;;;;;5020707;28;20044;-82
2023/11/19 08:25:33;;;;;;;1.33;0.80;;;10.70;99.90;;;;;;5022968;28;20084;-82
2023/11/19 08:27:59;;;;;;;0.60;0.50;;;10.80;99.90;;;;;;5022704;28;20444;-81
2023/11/19 08:30:25;;;;;;;2.03;1.10;;;10.80;99.90;;;;;;5023177;28;20060;-83
2023/11/19 08:32:50;;;;;;;0.80;0.70;;;10.80;99.90;;;;;;5019179;28;20480;-83
2023/11/19 08:35:16;;;;;;;2.03;1.70;;;10.80;99.90;;;;;;5014906;28;20119;-83
2023/11/19 08:37:42;;;;;;;1.00;0.90;;;10.80;99.90;;;;;;5017626;28;20072;-83
2023/11/19 08:40:08;;;;;;;1.53;0.80;;;10.90;99.90;;;;;;5020967;28;20033;-83
2023/11/19 08:42:33;;;;;;;1.17;0.73;;;10.90;99.90;;;;;;5023484;28;20040;-83
2023/11/19 08:44:59;;;;;;;1.53;0.83;;;11.00;99.90;;;;;;5017735;28;20025;-83
2023/11/19 08:47:24;;;;;;;0.50;0.50;;;11.00;99.90;;;;;;5017861;28;20128;-83
2023/11/19 10:26:42;;;;;;;1.65;0.85;;;12.70;99.90;;;;;;4737166;23;19927;-74
2023/11/19 17:32:02;;;;;;;1.73;0.90;;;11.70;99.90;;;;;;980830;23;21085;-78
2023/11/19 17:41:08;;;;;;;;;;;;;;;;;;;;;
2023/11/19 21:09:45;;;;;;;1.60;1.10;;;10.60;99.90;;;;;;4856721;29;20057;-82
2023/11/19 21:12:42;;;;;;;2.37;1.10;;;10.60;99.90;;;;;;4852976;29;20090;-84
2023/11/19 22:01:44;;;;;;;1.73;1.00;;;10.80;99.90;;;;;;5543185;23;20100;-84
2023/11/19 22:04:10;;;;;;;2.90;0.90;;;10.80;99.90;;;;;;4872194;29;20025;-84
2023/11/19 22:06:35;;;;;;;2.00;0.90;;;10.80;99.90;;;;;;4871401;29;20659;-84
2023/11/19 22:09:01;;;;;;;1.50;0.87;;;10.80;99.90;;;;;;4872535;29;20108;-84
2023/11/19 22:11:27;;;;;;;1.17;0.80;;;10.80;99.90;;;;;;4871873;29;20056;-83
2023/11/19 22:13:54;;;;;;;1.10;0.77;;;10.80;99.90;;;;;;4871786;29;20037;-84
2023/11/19 22:16:20;;;;;;;1.13;0.70;;;10.80;99.90;;;;;;4871932;29;20036;-84
2023/11/19 22:18:46;;;;;;;2.07;0.83;;;10.80;99.90;;;;;;4872017;29;20037;-84
2023/11/19 22:21:11;;;;;;;2.33;1.10;;;10.80;99.90;;;;;;4872657;29;20044;-84
2023/11/19 22:23:37;;;;;;;2.83;0.90;;;10.80;99.90;;;;;;4870986;29;20168;-85
2023/11/19 22:26:02;;;;;;;3.07;1.00;;;10.80;99.90;;;;;;4871478;29;20040;-84
2023/11/19 22:28:29;;;;;;;2.70;0.90;;;10.70;99.90;;;;;;4869481;29;20030;-83
2023/11/19 22:30:54;;;;;;;2.07;0.90;;;10.60;99.90;;;;;;4871975;29;20033;-83
2023/11/19 22:33:20;;;;;;;1.27;0.90;;;10.70;99.90;;;;;;4871556;29;20017;-83
2023/11/19 22:35:46;;;;;;;1.30;0.80;;;10.60;99.90;;;;;;4871067;29;20040;-84
2023/11/19 22:38:12;;;;;;;1.73;0.80;;;10.70;99.90;;;;;;4871317;29;20051;-83
2023/11/19 22:40:37;;;;;;;1.13;0.80;;;10.60;99.90;;;;;;4870954;29;20033;-84
2023/11/19 22:43:03;;;;;;;1.47;0.80;;;10.50;99.90;;;;;;4871548;29;20036;-84
2023/11/19 22:45:29;;;;;;;2.00;0.90;;;10.50;99.90;;;;;;4869610;29;20071;-83
2023/11/19 22:47:54;;;;;;;1.33;0.90;;;10.50;99.90;;;;;;4870486;29;20048;-83
2023/11/19 22:50:20;;;;;;;3.33;1.13;;;10.50;99.90;;;;;;4871843;29;20484;-84
2023/11/19 22:52:45;;;;;;;0.93;0.80;;;10.40;99.90;;;;;;4871703;29;20052;-84
2023/11/19 22:55:11;;;;;;;2.77;1.10;;;10.40;99.90;;;;;;4870239;29;20071;-83
2023/11/19 22:57:37;;;;;;;2.67;0.90;;;10.50;99.90;;;;;;4871770;29;20397;-84
2023/11/19 23:00:09;;;;;;;2.50;1.40;;;10.50;99.90;;;;;;4871443;29;20064;-83
2023/11/19 23:02:35;;;;;;;1.10;0.70;;;10.50;99.90;;;;;;4870734;29;20091;-85
2023/11/19 23:05:01;;;;;;;3.73;0.93;;;10.50;99.90;;;;;;4870194;29;20046;-84
2023/11/19 23:07:28;;;;;;;1.87;1.00;;;10.60;99.90;;;;;;4871319;29;20040;-83
2023/11/19 23:09:53;;;;;;;2.10;0.70;;;10.60;99.90;;;;;;4870881;29;20093;-84
2023/11/19 23:12:19;;;;;;;1.50;0.90;;;10.60;99.90;;;;;;4871671;29;20037;-84
2023/11/19 23:14:44;;;;;;;2.50;0.70;;;10.60;99.90;;;;;;4872022;29;20033;-83
2023/11/19 23:17:16;;;;;;;1.00;0.70;;;10.60;99.90;;;;;;4868978;29;20061;-84
2023/11/19 23:19:43;;;;;;;1.33;0.70;;;10.60;99.90;;;;;;4871834;29;20036;-84
2023/11/19 23:22:08;;;;;;;3.13;1.07;;;10.50;99.90;;;;;;4871921;29;20033;-84
2023/11/19 23:24:34;;;;;;;1.13;0.80;;;10.50;99.90;;;;;;4870600;29;20705;-83
2023/11/19 23:27:00;;;;;;;1.73;0.80;;;10.40;99.90;;;;;;4870243;29;20449;-84
2023/11/19 23:29:26;;;;;;;1.33;0.60;;;10.40;99.90;;;;;;4871019;29;20025;-84
2023/11/19 23:31:51;;;;;;;2.03;0.83;;;10.40;99.90;;;;;;4872536;29;20029;-83
2023/11/19 23:34:17;;;;;;;4.07;0.80;;;10.40;99.90;;;;;;4874084;29;20037;-84
2023/11/19 23:36:43;;;;;;;1.63;1.20;;;10.40;99.90;;;;;;4877359;29;20084;-83
2023/11/19 23:39:08;;;;;;;1.33;0.70;;;10.40;99.90;;;;;;4877203;29;20027;-84
2023/11/19 23:41:34;;;;;;;1.40;0.90;;;10.40;99.90;;;;;;4887277;29;21693;-84
2023/11/19 23:43:59;;;;;;;0.87;0.73;;;10.30;99.90;;;;;;4886511;29;20540;-84
2023/11/19 23:46:25;;;;;;;1.30;0.70;;;10.30;99.90;;;;;;4873414;29;20670;-84
2023/11/19 23:48:53;;;;;;;1.57;0.90;;;10.30;99.90;;;;;;4872283;29;20231;-83
2023/11/19 23:51:18;;;;;;;1.30;0.90;;;10.30;99.90;;;;;;4873204;29;20125;-84
2023/11/19 23:53:44;;;;;;;1.53;1.23;;;10.20;99.90;;;;;;4871616;29;20032;-83
2023/11/19 23:56:11;;;;;;;1.53;0.90;;;10.20;99.90;;;;;;4871844;29;20037;-85
2023/11/19 23:58:37;;;;;;;1.23;0.80;;;10.20;99.90;;;;;;4871956;29;20061;-85
